createdAt,value
2017-11-11T17:29:51.952Z,8.30
2017-11-11T17:32:25.225Z,5.97
2017-11-11T17:34:57.806Z,4.93
2017-11-11T17:37:30.402Z,4.07
2017-11-11T17:40:02.993Z,4.23
2017-11-11T17:42:35.646Z,4.17
2017-11-11T17:45:08.198Z,3.67
2017-11-11T17:47:40.762Z,3.77
2017-11-11T17:50:14.096Z,3.53
2017-11-11T17:52:46.731Z,3.60
2017-11-11T17:55:19.695Z,5.53
2017-11-11T17:57:53.028Z,5.30
2017-11-11T18:00:25.592Z,7.80
2017-11-11T18:02:58.239Z,7.07
2017-11-11T18:05:30.897Z,4.23
2017-11-11T18:08:03.580Z,6.53
2017-11-11T18:10:36.134Z,4.30
2017-11-11T18:13:08.719Z,8.37
2017-11-11T18:15:41.259Z,16.70
2017-11-11T18:18:13.808Z,12.23
2017-11-11T18:20:46.331Z,10.47
2017-11-11T18:23:18.952Z,18.63
2017-11-11T18:25:51.548Z,14.00
2017-11-11T18:28:25.032Z,19.17
2017-11-11T18:30:58.541Z,22.00
2017-11-11T18:33:31.895Z,15.57
2017-11-11T18:36:04.470Z,18.63
2017-11-11T18:38:37.024Z,13.00
2017-11-11T18:41:09.572Z,10.33
2017-11-11T18:43:42.907Z,16.53
2017-11-11T18:46:15.452Z,15.47
2017-11-11T18:48:48.037Z,12.77
2017-11-11T18:51:20.567Z,15.77
2017-11-11T18:53:53.184Z,10.13
2017-11-11T18:56:25.788Z,13.97
2017-11-11T18:58:58.374Z,12.80
2017-11-11T19:01:31.057Z,11.40
2017-11-11T19:04:03.655Z,12.33
2017-11-11T19:06:36.300Z,16.70
2017-11-11T19:09:08.875Z,12.40
2017-11-11T19:11:41.437Z,8.83
2017-11-11T19:14:14.028Z,10.20
2017-11-11T19:16:46.566Z,10.93
2017-11-11T19:19:19.892Z,9.53
2017-11-11T19:21:52.466Z,13.60
2017-11-11T19:24:25.151Z,9.63
2017-11-11T19:26:57.771Z,12.63
2017-11-11T19:29:30.411Z,14.93
2017-11-11T19:32:03.141Z,10.20
2017-11-11T19:34:35.752Z,14.17
2017-11-11T19:37:08.367Z,12.67
2017-11-11T19:39:41.015Z,13.20
2017-11-11T19:42:13.547Z,15.03
2017-11-11T19:44:46.880Z,14.73
2017-11-11T19:47:19.428Z,16.37
2017-11-11T19:49:52.746Z,25.83
2017-11-11T19:52:25.337Z,16.93
2017-11-11T19:54:57.993Z,15.27
2017-11-11T19:57:30.562Z,14.60
2017-11-11T20:00:03.914Z,10.27
2017-11-11T20:02:36.455Z,7.23
2017-11-11T20:05:09.015Z,4.90
2017-11-11T20:07:41.574Z,4.13
2017-11-11T20:10:14.931Z,3.23
2017-11-11T20:12:47.463Z,3.87
2017-11-11T20:15:20.025Z,3.87
2017-11-11T20:17:53.320Z,5.30
2017-11-11T20:20:26.690Z,4.27
2017-11-11T20:22:59.229Z,7.40
2017-11-11T20:25:31.807Z,6.60
2017-11-11T20:28:04.380Z,14.87
2017-11-11T20:30:36.928Z,8.83
2017-11-11T20:33:09.479Z,6.40
2017-11-11T20:35:42.031Z,12.60
2017-11-11T20:38:14.590Z,17.90
2017-11-11T20:40:47.148Z,10.60
2017-11-11T20:43:19.673Z,9.57
2017-11-11T20:45:52.627Z,10.73
2017-11-11T20:48:25.314Z,14.97
2017-11-11T20:50:58.344Z,13.03
2017-11-11T20:53:31.046Z,17.10
2017-11-11T20:56:03.749Z,10.83
2017-11-11T20:58:36.297Z,12.07
2017-11-11T21:01:09.083Z,12.30
2017-11-11T21:03:41.762Z,18.23
2017-11-11T21:06:14.465Z,13.17
2017-11-11T21:08:48.271Z,23.63
2017-11-11T21:11:20.862Z,18.20
2017-11-11T21:13:53.484Z,26.30
2017-11-11T21:16:26.321Z,34.77
2017-11-11T21:18:58.973Z,18.00
2017-11-11T21:21:31.815Z,14.20
2017-11-11T21:24:05.138Z,13.27
2017-11-11T21:26:37.688Z,12.13
2017-11-11T21:29:11.316Z,15.13
2017-11-11T21:31:43.870Z,11.33
2017-11-11T21:34:17.444Z,14.27
2017-11-11T21:36:50.157Z,12.90
2017-11-11T21:39:22.730Z,17.27
2017-11-11T21:41:56.111Z,11.03
2017-11-11T21:44:29.431Z,12.83
2017-11-11T21:47:02.251Z,9.73
2017-11-11T21:49:35.017Z,11.33
2017-11-11T21:52:07.581Z,12.20
2017-11-11T21:54:40.199Z,10.33
2017-11-11T21:57:13.746Z,11.40
2017-11-11T21:59:46.633Z,12.10
2017-11-11T22:02:19.575Z,11.63
2017-11-11T22:04:52.227Z,11.00
2017-11-11T22:07:24.817Z,16.77
2017-11-11T22:09:57.381Z,13.30
2017-11-11T22:12:29.959Z,9.10
2017-11-11T22:15:02.697Z,12.50
2017-11-11T22:17:35.371Z,14.43
2017-11-11T22:20:08.924Z,12.20
2017-11-11T22:22:41.567Z,9.50
2017-11-11T22:25:14.408Z,16.03
2017-11-11T22:27:47.827Z,14.53
2017-11-11T22:30:20.678Z,9.53
2017-11-11T22:32:53.454Z,20.27
2017-11-11T22:35:26.195Z,13.67
2017-11-11T22:37:58.976Z,14.50
2017-11-11T22:40:31.614Z,16.50
2017-11-11T22:43:04.257Z,15.93
2017-11-11T22:45:37.122Z,13.70
2017-11-11T22:48:09.816Z,13.37
2017-11-11T22:50:43.329Z,14.17
2017-11-11T22:53:16.730Z,19.57
2017-11-11T22:55:49.313Z,23.97
2017-11-11T22:58:21.991Z,27.40
2017-11-11T23:00:55.586Z,23.80
2017-11-11T23:03:28.175Z,23.77
2017-11-11T23:06:00.704Z,19.90
2017-11-11T23:08:33.342Z,19.13
2017-11-11T23:11:05.993Z,22.23
2017-11-11T23:13:38.568Z,24.73
2017-11-11T23:16:11.101Z,20.63
2017-11-11T23:18:43.673Z,26.93
2017-11-11T23:21:16.260Z,18.83
2017-11-11T23:23:48.835Z,15.00
2017-11-11T23:26:21.473Z,12.53
2017-11-11T23:28:55.508Z,10.70
2017-11-11T23:31:28.813Z,18.37
2017-11-11T23:34:01.412Z,10.47
2017-11-11T23:36:33.971Z,9.63
2017-11-11T23:39:06.507Z,9.37
2017-11-11T23:41:39.024Z,12.43
2017-11-11T23:44:11.572Z,21.60
2017-11-11T23:46:44.891Z,10.77
2017-11-11T23:49:17.485Z,9.47
2017-11-11T23:51:50.063Z,14.00
2017-11-11T23:54:22.774Z,13.73
2017-11-11T23:56:55.325Z,11.23
2017-11-11T23:59:27.892Z,12.43
